Saxonburg, Pennsylvania
Current Conditions -  °F | °C
As of 12:15 PM on Saturday 25 Oct 2014 (Local Time) from KBTP Reporting Station
Broken Clouds Broken Clouds  
Wind Chill: 59°   Ceiling: 6500
Heat Index: 59°   Visibility: 10mi
Dew Point: 46°   Wind: 12mph
Humidity: 63%   Direction: 240°WSW
Pressure: 29.9"   Gusts: 21mph
Location:  40.75°N, 79.81°W
Report Text: KBTP 251615Z AUTO 24010G18KT 10SM BKN065 BKN100 15/08 A2990 RMK AO1
Loading
Personal Weather Stations






























Interactive Weather Map
Tropical Storm Tracking
New forecast layout! Learn more

10-Day Weather Forecast

Advertisements
Track Severe Weather on mobile